createdAt,value
2018-08-07T03:01:02.837Z,985.47
2018-08-07T03:02:02.997Z,985.51
2018-08-07T03:04:03.896Z,985.51
2018-08-07T03:05:04.278Z,985.49
2018-08-07T03:06:03.841Z,985.51
2018-08-07T03:07:05.587Z,985.51
2018-08-07T03:08:02.177Z,985.50
2018-08-07T03:09:02.037Z,985.51
2018-08-07T03:10:02.047Z,985.52
2018-08-07T03:11:02.267Z,985.48
2018-08-07T03:12:02.490Z,985.52
2018-08-07T03:13:02.682Z,985.53
2018-08-07T03:14:02.839Z,985.53
2018-08-07T03:15:02.950Z,985.54
2018-08-07T03:16:03.109Z,985.55
2018-08-07T03:17:03.279Z,985.53
2018-08-07T03:18:03.540Z,985.57
2018-08-07T03:19:03.617Z,985.57
2018-08-07T03:20:03.850Z,985.57
2018-08-07T03:21:03.953Z,985.55
2018-08-07T03:22:04.128Z,985.52
2018-08-07T03:23:04.338Z,985.50
2018-08-07T03:24:04.380Z,985.60
2018-08-07T03:25:04.700Z,985.54
2018-08-07T03:26:04.732Z,985.58
2018-08-07T03:27:04.968Z,985.54
2018-08-07T03:28:05.250Z,985.58
2018-08-07T03:29:05.262Z,985.55
2018-08-07T03:30:05.520Z,985.56
2018-08-07T03:31:05.720Z,985.63
2018-08-07T03:32:05.875Z,985.58
2018-08-07T03:33:05.948Z,985.59
2018-08-07T03:34:06.191Z,985.61
2018-08-07T03:35:06.337Z,985.59
2018-08-07T03:36:06.649Z,985.60
2018-08-07T03:37:06.836Z,985.58
2018-08-07T03:38:06.888Z,985.60
2018-08-07T03:39:07.150Z,985.60
2018-08-07T03:40:07.235Z,985.61
2018-08-07T03:41:07.517Z,985.59
2018-08-07T03:42:07.742Z,985.62
2018-08-07T03:43:07.792Z,985.62
2018-08-07T03:44:08.089Z,985.64
2018-08-07T03:45:08.195Z,985.64
2018-08-07T03:46:08.332Z,985.64
2018-08-07T03:47:08.644Z,985.64
2018-08-07T03:48:08.742Z,985.67
2018-08-07T03:49:08.936Z,985.66
2018-08-07T03:50:09.126Z,985.66
2018-08-07T03:51:09.330Z,985.67
2018-08-07T03:52:09.474Z,985.66
2018-08-07T03:53:09.673Z,985.67
2018-08-07T03:54:09.797Z,985.71
2018-08-07T03:55:10.004Z,985.74
2018-08-07T03:56:10.089Z,985.71
2018-08-07T03:57:10.401Z,985.70
2018-08-07T03:58:10.590Z,985.68
2018-08-07T03:59:10.728Z,985.70
2018-08-07T04:00:10.947Z,985.71
2018-08-07T04:01:11.774Z,985.75
2018-08-07T04:02:11.266Z,985.73
2018-08-07T04:03:11.315Z,985.74
2018-08-07T04:04:11.727Z,985.76
2018-08-07T04:05:11.810Z,985.77
2018-08-07T04:06:11.911Z,985.76
2018-08-07T04:07:12.062Z,985.75
2018-08-07T04:08:12.273Z,985.78
2018-08-07T04:09:12.448Z,985.74
2018-08-07T04:10:12.634Z,985.77
2018-08-07T04:11:12.851Z,985.76
2018-08-07T04:12:12.902Z,985.74
2018-08-07T04:13:13.100Z,985.75
2018-08-07T04:14:13.411Z,985.74
2018-08-07T04:15:13.490Z,985.71
2018-08-07T04:16:13.647Z,985.75
2018-08-07T04:17:13.747Z,985.73
2018-08-07T04:18:14.059Z,985.71
2018-08-07T04:19:14.130Z,985.68
2018-08-07T04:20:14.252Z,985.72
2018-08-07T04:21:14.501Z,985.74
2018-08-07T04:22:14.779Z,985.74
2018-08-07T04:23:14.825Z,985.74
2018-08-07T04:24:15.099Z,985.73
2018-08-07T04:25:15.145Z,985.71
2018-08-07T04:26:15.316Z,985.73
2018-08-07T04:27:15.611Z,985.75
2018-08-07T04:28:15.604Z,985.73
2018-08-07T04:29:15.865Z,985.73
2018-08-07T04:30:16.088Z,985.80
2018-08-07T04:31:16.115Z,985.77
2018-08-07T04:32:16.370Z,985.76
2018-08-07T04:33:16.502Z,985.71
2018-08-07T04:34:16.759Z,985.76
2018-08-07T04:35:17.556Z,985.77
2018-08-07T04:36:17.069Z,985.76
2018-08-07T04:37:17.271Z,985.73
2018-08-07T04:38:17.545Z,985.79
2018-08-07T04:39:17.611Z,985.80
2018-08-07T04:40:17.833Z,985.77
2018-08-07T04:41:17.940Z,985.81
2018-08-07T04:42:18.090Z,985.80
2018-08-07T04:43:18.285Z,985.82
2018-08-07T04:44:18.409Z,985.87
2018-08-07T04:45:18.555Z,985.87
2018-08-07T04:46:18.719Z,985.85
2018-08-07T04:47:18.913Z,985.86
2018-08-07T04:48:19.098Z,985.83
2018-08-07T04:49:19.293Z,985.83
2018-08-07T04:50:19.355Z,985.89
2018-08-07T04:51:19.569Z,985.81
2018-08-07T04:52:19.720Z,985.83
2018-08-07T04:53:19.881Z,985.80
2018-08-07T04:54:20.099Z,985.87
2018-08-07T04:55:20.167Z,985.83
2018-08-07T04:56:20.413Z,985.83
2018-08-07T04:57:20.547Z,985.84
2018-08-07T04:58:20.861Z,985.80
2018-08-07T04:59:20.908Z,985.84
2018-08-07T05:00:21.137Z,985.80
2018-08-07T05:01:21.291Z,985.84
2018-08-07T05:02:21.441Z,985.82
2018-08-07T05:03:21.536Z,985.83
2018-08-07T05:04:21.733Z,985.80
2018-08-07T05:05:23.347Z,985.82
2018-08-07T05:06:22.229Z,985.83
2018-08-07T05:07:22.591Z,985.84
2018-08-07T05:08:22.566Z,985.86
2018-08-07T05:09:22.786Z,985.87
2018-08-07T05:10:23.977Z,985.87
2018-08-07T05:11:23.280Z,985.88
2018-08-07T05:12:25.259Z,985.87
2018-08-07T05:13:23.492Z,985.91
2018-08-07T05:14:23.644Z,985.90
2018-08-07T05:15:23.880Z,985.92
2018-08-07T05:16:23.960Z,985.89
2018-08-07T05:17:24.288Z,985.86
2018-08-07T05:18:28.119Z,985.87
2018-08-07T05:19:27.066Z,985.87
2018-08-07T05:20:38.393Z,985.85
2018-08-07T05:21:27.698Z,985.88
2018-08-07T05:22:29.058Z,985.91
2018-08-07T05:23:27.711Z,985.90
2018-08-07T05:24:29.367Z,985.90
2018-08-07T05:25:28.794Z,985.91
2018-08-07T05:26:29.005Z,985.96
2018-08-07T05:27:29.378Z,985.95
2018-08-07T05:28:26.756Z,985.96
2018-08-07T05:29:26.297Z,985.95
2018-08-07T05:30:26.427Z,985.95
2018-08-07T05:33:33.690Z,985.97
2018-08-07T05:34:41.716Z,985.98
2018-08-07T05:35:59.750Z,985.98
2018-08-07T05:36:37.101Z,985.99
2018-08-07T05:37:32.472Z,986.04
2018-08-07T05:38:32.184Z,986.03
2018-08-07T05:39:32.250Z,986.06
2018-08-07T05:40:32.453Z,986.02
2018-08-07T05:41:32.509Z,986.05
2018-08-07T05:42:32.800Z,986.03
2018-08-07T05:43:32.887Z,985.97
2018-08-07T05:44:33.018Z,985.96
2018-08-07T05:45:33.148Z,985.96
2018-08-07T05:46:33.384Z,985.99
2018-08-07T05:47:33.550Z,985.99
2018-08-07T05:48:33.761Z,985.97
2018-08-07T05:49:33.952Z,985.95
2018-08-07T05:50:34.126Z,985.96
2018-08-07T05:51:34.329Z,985.95
2018-08-07T05:52:34.398Z,985.90
2018-08-07T05:53:34.510Z,985.90
2018-08-07T05:54:34.649Z,985.91
2018-08-07T05:55:34.873Z,985.90
2018-08-07T05:56:35.085Z,985.88
2018-08-07T05:57:35.262Z,985.91
2018-08-07T05:58:35.403Z,985.96
2018-08-07T05:59:35.581Z,985.96
2018-08-07T06:00:35.869Z,985.98
2018-08-07T06:01:36.030Z,985.97
2018-08-07T06:02:36.219Z,985.99
2018-08-07T06:03:36.356Z,986.01
2018-08-07T06:04:36.414Z,985.97
2018-08-07T06:05:36.623Z,986.02
2018-08-07T06:06:36.879Z,986.03
2018-08-07T06:07:36.985Z,986.02
2018-08-07T06:08:37.161Z,986.04
2018-08-07T06:09:37.280Z,985.99
2018-08-07T06:10:37.495Z,986.04
2018-08-07T06:11:37.732Z,986.02
2018-08-07T06:12:37.867Z,986.04
2018-08-07T06:13:37.977Z,986.06
2018-08-07T06:14:38.156Z,986.05
2018-08-07T06:15:38.326Z,986.01
2018-08-07T06:16:38.551Z,986.01
2018-08-07T06:17:38.584Z,986.04
2018-08-07T06:18:38.808Z,986.06
2018-08-07T06:19:39.002Z,986.08
2018-08-07T06:20:39.227Z,986.09
2018-08-07T06:21:39.315Z,986.14
2018-08-07T06:22:39.552Z,986.08
2018-08-07T06:23:39.678Z,986.13
2018-08-07T06:24:39.897Z,986.11
2018-08-07T06:25:39.936Z,986.12
2018-08-07T06:26:40.276Z,986.11
2018-08-07T06:27:40.406Z,986.14
2018-08-07T06:28:40.573Z,986.13
2018-08-07T06:29:40.686Z,986.06
2018-08-07T06:30:40.818Z,986.07
2018-08-07T06:31:41.075Z,986.08
2018-08-07T06:32:41.390Z,986.05
2018-08-07T06:33:41.445Z,986.08
2018-08-07T06:34:41.646Z,986.06
2018-08-07T06:35:41.887Z,986.10
2018-08-07T06:36:41.957Z,986.08
2018-08-07T06:37:42.259Z,986.10
2018-08-07T06:38:42.229Z,986.10
2018-08-07T06:39:42.412Z,986.06
2018-08-07T06:40:42.702Z,986.09
2018-08-07T06:41:42.724Z,986.06
2018-08-07T06:42:44.387Z,986.01
2018-08-07T06:43:43.299Z,986.05
2018-08-07T06:46:19.115Z,986.05
2018-08-07T06:47:19.229Z,986.04
2018-08-07T06:48:17.703Z,986.04
2018-08-07T06:49:18.574Z,986.04
2018-08-07T06:50:17.603Z,986.06
2018-08-07T06:51:17.812Z,986.02
2018-08-07T06:52:17.913Z,986.05
2018-08-07T06:53:18.067Z,986.02
2018-08-07T06:54:18.228Z,986.03
2018-08-07T06:55:18.487Z,986.02
2018-08-07T06:56:18.654Z,986.04
2018-08-07T06:57:18.743Z,986.02
2018-08-07T06:58:18.873Z,985.98
2018-08-07T06:59:19.092Z,985.99
2018-08-07T07:00:19.240Z,985.92
2018-08-07T07:01:19.454Z,985.93
2018-08-07T07:02:19.647Z,985.90
2018-08-07T07:03:19.796Z,985.97
2018-08-07T07:04:19.990Z,985.94
2018-08-07T07:05:20.204Z,985.89
2018-08-07T07:06:20.439Z,985.92
2018-08-07T07:07:20.587Z,985.89
2018-08-07T07:08:20.784Z,985.88
2018-08-07T07:09:20.930Z,985.88
2018-08-07T07:10:21.158Z,985.90
2018-08-07T07:11:21.248Z,985.90
2018-08-07T07:12:21.456Z,985.87
2018-08-07T07:13:21.624Z,985.87
2018-08-07T07:14:21.824Z,985.82
2018-08-07T07:15:21.971Z,985.83
2018-08-07T07:16:22.139Z,985.84
2018-08-07T07:17:22.370Z,985.82
2018-08-07T07:18:22.470Z,985.85
2018-08-07T07:19:22.656Z,985.81
2018-08-07T07:20:22.891Z,985.83
2018-08-07T07:21:23.056Z,985.86
2018-08-07T07:22:23.246Z,985.85
2018-08-07T07:23:23.335Z,985.90
2018-08-07T07:24:23.520Z,985.87
2018-08-07T07:25:23.793Z,985.86
2018-08-07T07:26:23.928Z,985.86
2018-08-07T07:27:24.070Z,985.81
2018-08-07T07:28:24.203Z,985.79
2018-08-07T07:29:24.435Z,985.85
2018-08-07T07:30:24.514Z,985.82
2018-08-07T07:31:24.759Z,985.82
2018-08-07T07:32:24.903Z,985.85
2018-08-07T07:33:25.062Z,985.77
2018-08-07T07:34:25.265Z,985.76
2018-08-07T07:35:25.500Z,985.78
2018-08-07T07:36:25.605Z,985.71
2018-08-07T07:37:25.814Z,985.74
2018-08-07T07:38:26.001Z,985.73
2018-08-07T07:39:26.202Z,985.71
2018-08-07T07:40:26.407Z,985.70
2018-08-07T07:41:26.470Z,985.70
2018-08-07T07:42:26.766Z,985.68
2018-08-07T07:43:26.972Z,985.65
2018-08-07T07:44:27.110Z,985.72
2018-08-07T07:45:27.312Z,985.72
2018-08-07T07:46:27.475Z,985.74
2018-08-07T07:47:27.728Z,985.74
2018-08-07T07:48:27.877Z,985.73
2018-08-07T07:49:28.062Z,985.71
2018-08-07T07:50:28.263Z,985.69
2018-08-07T07:51:28.356Z,985.72
2018-08-07T07:52:28.522Z,985.72
2018-08-07T07:53:28.689Z,985.69
2018-08-07T07:54:28.973Z,985.69
2018-08-07T07:55:29.078Z,985.76
2018-08-07T07:56:29.206Z,985.77
2018-08-07T07:57:29.444Z,985.78
2018-08-07T07:58:29.710Z,985.81
2018-08-07T07:59:29.840Z,985.83
2018-08-07T08:00:29.955Z,985.84
2018-08-07T08:01:30.154Z,985.80
2018-08-07T08:02:30.395Z,985.81
2018-08-07T08:03:30.507Z,985.90
2018-08-07T08:04:30.754Z,985.83
2018-08-07T08:05:30.895Z,985.85
2018-08-07T08:06:31.080Z,985.84
2018-08-07T08:07:31.219Z,985.82
2018-08-07T08:08:31.432Z,985.84
2018-08-07T08:09:31.536Z,985.85
2018-08-07T08:10:31.737Z,985.80
2018-08-07T08:11:32.019Z,985.84
2018-08-07T08:12:32.153Z,985.85
2018-08-07T08:13:32.321Z,985.84
2018-08-07T08:14:32.479Z,985.82
2018-08-07T08:15:32.606Z,985.82
2018-08-07T08:16:32.775Z,985.81
2018-08-07T08:17:32.932Z,985.80
2018-08-07T08:18:33.157Z,985.79
2018-08-07T08:19:33.368Z,985.81
2018-08-07T08:20:33.538Z,985.81
2018-08-07T08:21:33.691Z,985.86
2018-08-07T08:22:33.911Z,985.82
2018-08-07T08:23:33.998Z,985.84
2018-08-07T08:24:34.175Z,985.81
2018-08-07T08:25:34.331Z,985.81
2018-08-07T08:26:34.512Z,985.77
2018-08-07T08:27:34.793Z,985.82
2018-08-07T08:28:34.928Z,985.85
2018-08-07T08:29:35.211Z,985.84
2018-08-07T08:30:35.282Z,985.83
2018-08-07T08:31:35.403Z,985.79
2018-08-07T08:32:35.561Z,985.78
2018-08-07T08:33:35.791Z,985.81
2018-08-07T08:34:35.937Z,985.84
2018-08-07T08:35:36.234Z,985.85
2018-08-07T08:36:36.257Z,985.84
2018-08-07T08:37:36.525Z,985.79
2018-08-07T08:38:36.649Z,985.77
2018-08-07T08:39:36.852Z,985.77
2018-08-07T08:40:37.075Z,985.78
2018-08-07T08:41:37.211Z,985.76
2018-08-07T08:42:37.413Z,985.82
2018-08-07T08:43:37.604Z,985.79
2018-08-07T08:44:37.741Z,985.76
2018-08-07T08:45:37.916Z,985.76
2018-08-07T08:46:38.150Z,985.71
2018-08-07T08:47:38.303Z,985.72
2018-08-07T08:48:38.549Z,985.70
2018-08-07T08:49:38.645Z,985.73
2018-08-07T08:50:38.831Z,985.67
2018-08-07T08:51:38.994Z,985.67
2018-08-07T08:52:39.105Z,985.65
2018-08-07T08:53:39.305Z,985.65
2018-08-07T08:54:39.524Z,985.66
2018-08-07T08:55:39.712Z,985.61
2018-08-07T08:56:39.849Z,985.57
2018-08-07T08:57:40.082Z,985.55
2018-08-07T08:58:40.250Z,985.58
2018-08-07T08:59:40.432Z,985.56
2018-08-07T09:00:40.618Z,985.55
2018-08-07T09:01:40.820Z,985.56
2018-08-07T09:02:40.996Z,985.55
2018-08-07T09:03:41.144Z,985.56
2018-08-07T09:04:41.230Z,985.53
2018-08-07T09:05:41.491Z,985.51
2018-08-07T09:06:41.665Z,985.52
2018-08-07T09:07:41.798Z,985.47
2018-08-07T09:08:41.922Z,985.51
2018-08-07T09:09:42.151Z,985.49
2018-08-07T09:10:42.466Z,985.51
2018-08-07T09:17:22.821Z,985.41
2018-08-07T09:17:43.583Z,985.44
2018-08-07T09:18:43.672Z,985.41
2018-08-07T09:19:43.825Z,985.38
2018-08-07T09:20:44.031Z,985.38
2018-08-07T09:21:44.135Z,985.36
2018-08-07T09:22:44.350Z,985.32
2018-08-07T09:23:44.567Z,985.33
2018-08-07T09:24:44.699Z,985.30
2018-08-07T09:25:45.095Z,985.27
2018-08-07T09:26:45.067Z,985.28
2018-08-07T09:27:45.264Z,985.28
2018-08-07T09:28:45.343Z,985.31
2018-08-07T09:29:45.598Z,985.30
2018-08-07T09:30:45.727Z,985.35
2018-08-07T09:31:45.999Z,985.34
2018-08-07T09:32:46.134Z,985.36
2018-08-07T09:33:46.326Z,985.29
2018-08-07T09:34:46.469Z,985.38
2018-08-07T09:35:46.608Z,985.39
2018-08-07T09:36:46.770Z,985.42
2018-08-07T09:37:46.960Z,985.46
2018-08-07T09:38:47.090Z,985.45
2018-08-07T09:39:47.331Z,985.45
2018-08-07T09:40:47.433Z,985.41
2018-08-07T09:41:47.607Z,985.24
2018-08-07T09:42:47.890Z,985.20
2018-08-07T09:43:48.001Z,985.20
2018-08-07T09:44:48.154Z,985.22
2018-08-07T09:45:48.326Z,985.15
2018-08-07T09:46:48.540Z,985.12
2018-08-07T09:47:48.696Z,985.21
2018-08-07T09:48:48.920Z,985.41
2018-08-07T09:49:49.108Z,985.41
2018-08-07T09:50:49.202Z,985.47
2018-08-07T09:51:49.490Z,985.44
2018-08-07T09:52:49.558Z,985.36
2018-08-07T09:53:49.744Z,985.53
2018-08-07T09:54:49.903Z,985.50
2018-08-07T09:55:50.112Z,985.54
2018-08-07T09:56:50.279Z,985.50
2018-08-07T09:57:50.464Z,985.49
2018-08-07T09:58:50.572Z,985.44
2018-08-07T09:59:50.798Z,985.45
2018-08-07T10:00:50.960Z,985.39
2018-08-07T10:01:51.102Z,985.17
2018-08-07T10:02:51.295Z,985.09
2018-08-07T10:03:51.466Z,985.18
2018-08-07T10:04:51.649Z,985.34
2018-08-07T10:05:51.755Z,985.32
2018-08-07T10:06:52.004Z,985.31
2018-08-07T10:07:52.181Z,985.30
2018-08-07T10:08:52.362Z,985.28
2018-08-07T10:09:52.521Z,985.23
2018-08-07T10:10:52.742Z,985.30
2018-08-07T10:11:52.890Z,985.27
2018-08-07T10:12:53.095Z,985.29
2018-08-07T10:13:53.253Z,985.26
2018-08-07T10:14:53.521Z,985.21
2018-08-07T10:15:53.562Z,985.24
2018-08-07T10:16:54.524Z,985.25
2018-08-07T10:17:53.917Z,985.22
2018-08-07T10:18:54.055Z,985.23
2018-08-07T10:19:54.289Z,985.22
2018-08-07T10:20:54.468Z,985.15
2018-08-07T10:21:54.622Z,985.18
2018-08-07T10:22:54.825Z,985.06
2018-08-07T10:23:55.047Z,985.13
2018-08-07T10:24:55.206Z,985.13
2018-08-07T10:25:55.341Z,985.08
2018-08-07T10:26:55.557Z,985.09
2018-08-07T10:27:55.795Z,985.09
2018-08-07T10:28:55.848Z,984.95
2018-08-07T10:29:56.100Z,985.02
2018-08-07T10:30:56.189Z,985.09
2018-08-07T10:31:56.450Z,985.05
2018-08-07T10:32:56.654Z,985.04
2018-08-07T10:33:56.819Z,985.03
2018-08-07T10:34:56.978Z,985.03
2018-08-07T10:35:57.134Z,985.00
2018-08-07T10:36:57.326Z,984.99
2018-08-07T10:37:57.499Z,984.95
2018-08-07T10:38:57.702Z,984.96
2018-08-07T10:39:57.872Z,984.94
2018-08-07T10:40:58.112Z,984.97
2018-08-07T10:41:58.221Z,985.01
2018-08-07T10:42:58.427Z,985.27
2018-08-07T10:43:58.550Z,985.86
2018-08-07T10:44:58.766Z,986.47
2018-08-07T10:45:58.970Z,986.57
2018-08-07T10:46:59.108Z,986.80
2018-08-07T10:47:59.367Z,986.44
2018-08-07T10:48:59.473Z,986.39
2018-08-07T10:49:59.675Z,986.94
2018-08-07T10:50:59.855Z,986.97
2018-08-07T10:52:00.016Z,986.69
2018-08-07T10:53:00.169Z,986.63
2018-08-07T10:54:00.357Z,986.61
2018-08-07T10:55:00.555Z,986.36
2018-08-07T10:56:00.748Z,986.19
2018-08-07T10:57:00.901Z,986.05
2018-08-07T10:58:01.188Z,985.91
2018-08-07T10:59:01.328Z,985.81
2018-08-07T11:00:01.493Z,985.74
2018-08-07T11:01:01.696Z,985.69
2018-08-07T11:02:01.914Z,985.70
2018-08-07T11:03:01.982Z,985.58
2018-08-07T11:04:02.199Z,985.57
2018-08-07T11:05:02.356Z,985.50
2018-08-07T11:06:02.490Z,985.49
2018-08-07T11:07:02.698Z,985.50
2018-08-07T11:08:02.865Z,985.42
2018-08-07T11:09:03.013Z,985.38
2018-08-07T11:10:03.300Z,985.45
2018-08-07T11:11:03.534Z,985.46
2018-08-07T11:12:03.645Z,985.50
2018-08-07T11:13:03.770Z,985.50
2018-08-07T11:14:03.958Z,985.44
2018-08-07T11:15:04.200Z,985.39
2018-08-07T11:16:04.367Z,985.33
2018-08-07T11:17:04.498Z,985.20
2018-08-07T11:18:04.691Z,985.25
2018-08-07T11:19:04.904Z,985.21
2018-08-07T11:20:05.030Z,985.22
2018-08-07T11:21:05.270Z,984.78
2018-08-07T11:22:05.442Z,985.10
2018-08-07T11:23:05.660Z,984.47
2018-08-07T11:24:05.762Z,984.50
2018-08-07T11:25:06.025Z,985.23
2018-08-07T11:26:06.139Z,985.28
2018-08-07T11:27:06.362Z,984.82
2018-08-07T11:28:06.543Z,985.10
2018-08-07T11:29:06.692Z,985.25
2018-08-07T11:30:06.837Z,985.21
2018-08-07T11:31:07.058Z,984.44
2018-08-07T11:32:07.245Z,984.32
2018-08-07T11:33:07.395Z,985.02
2018-08-07T11:34:07.576Z,985.34
2018-08-07T11:35:07.800Z,985.22
2018-08-07T11:36:07.938Z,984.42
2018-08-07T11:37:08.151Z,985.26
2018-08-07T11:38:08.353Z,985.21
2018-08-07T11:39:08.543Z,984.36
2018-08-07T11:40:08.734Z,985.06
2018-08-07T11:41:08.941Z,984.97
2018-08-07T11:42:09.071Z,985.18
2018-08-07T11:43:09.174Z,985.21
2018-08-07T11:44:09.419Z,984.85
2018-08-07T11:45:09.614Z,984.20
2018-08-07T11:46:09.768Z,984.31
2018-08-07T11:47:10.017Z,985.12
2018-08-07T11:48:10.189Z,985.20
2018-08-07T11:49:10.374Z,985.20
2018-08-07T11:50:10.557Z,985.15
2018-08-07T11:51:10.764Z,984.94
2018-08-07T11:52:10.857Z,985.24
2018-08-07T11:53:11.187Z,984.53
2018-08-07T11:54:11.287Z,985.18
2018-08-07T11:55:11.483Z,985.19
2018-08-07T11:56:11.689Z,984.77
2018-08-07T11:57:11.831Z,984.26
2018-08-07T11:58:11.998Z,984.41
2018-08-07T11:59:12.120Z,985.03
2018-08-07T12:00:12.329Z,984.46
2018-08-07T12:01:12.532Z,984.39
2018-08-07T12:02:12.692Z,984.27
2018-08-07T12:03:12.887Z,984.48
2018-08-07T12:04:13.041Z,985.21
2018-08-07T12:05:13.251Z,984.90
2018-08-07T12:06:13.392Z,985.08
2018-08-07T12:07:13.626Z,985.04
2018-08-07T12:08:13.825Z,985.07
2018-08-07T12:09:13.931Z,984.66
2018-08-07T12:10:14.171Z,985.01
2018-08-07T12:11:14.357Z,985.03
2018-08-07T12:12:14.547Z,984.96
2018-08-07T12:13:14.630Z,984.92
2018-08-07T12:14:14.873Z,984.89
2018-08-07T12:15:15.051Z,984.90
2018-08-07T12:16:15.191Z,984.83
2018-08-07T12:17:15.430Z,984.76
2018-08-07T12:18:15.587Z,984.84
2018-08-07T12:19:15.738Z,984.83
2018-08-07T12:20:15.878Z,984.83
2018-08-07T12:21:16.164Z,984.80
2018-08-07T12:23:51.610Z,984.92
2018-08-07T12:24:51.779Z,984.92
2018-08-07T12:25:52.070Z,984.93
2018-08-07T12:26:51.924Z,984.95
2018-08-07T12:27:51.531Z,984.89
2018-08-07T12:28:53.899Z,984.89
2018-08-07T12:29:50.502Z,984.78
2018-08-07T12:30:50.692Z,984.73
2018-08-07T12:31:50.779Z,984.54
2018-08-07T12:32:50.941Z,984.39
2018-08-07T12:33:51.264Z,984.20
2018-08-07T12:34:51.368Z,984.22
2018-08-07T12:35:51.503Z,984.25
2018-08-07T12:36:51.702Z,983.95
2018-08-07T12:37:51.988Z,984.11
2018-08-07T12:38:52.125Z,984.21
2018-08-07T12:39:52.285Z,984.15
2018-08-07T12:40:52.472Z,984.12
2018-08-07T12:41:52.675Z,984.13
2018-08-07T12:42:52.824Z,984.08
2018-08-07T12:43:53.063Z,984.06
2018-08-07T12:44:53.220Z,984.03
2018-08-07T12:45:53.434Z,984.06
2018-08-07T12:46:53.560Z,984.08
2018-08-07T12:47:53.756Z,983.69
2018-08-07T12:48:53.989Z,983.74
2018-08-07T12:49:54.157Z,983.73
2018-08-07T12:50:54.307Z,983.68
2018-08-07T12:51:54.474Z,983.75
2018-08-07T12:52:54.719Z,983.71
2018-08-07T12:53:54.934Z,983.68
2018-08-07T12:54:55.122Z,984.07
2018-08-07T12:55:55.297Z,983.68
2018-08-07T12:56:55.439Z,983.67
2018-08-07T12:57:55.678Z,983.62
2018-08-07T12:58:55.892Z,983.69
2018-08-07T12:59:56.072Z,983.66
2018-08-07T13:00:56.243Z,983.69
2018-08-07T13:01:56.432Z,983.75
2018-08-07T13:02:56.658Z,983.71
2018-08-07T13:03:56.723Z,983.75
2018-08-07T13:04:56.982Z,983.93
2018-08-07T13:05:57.233Z,983.93
2018-08-07T13:06:57.360Z,984.00
2018-08-07T13:07:57.492Z,983.96
2018-08-07T13:08:57.719Z,983.62
2018-08-07T13:09:57.881Z,983.64
2018-08-07T13:10:58.081Z,983.89
2018-08-07T13:11:58.193Z,983.88
2018-08-07T13:12:58.342Z,983.73
2018-08-07T13:13:58.603Z,983.89
2018-08-07T13:14:58.735Z,983.82
2018-08-07T13:15:58.918Z,983.83
2018-08-07T13:16:59.052Z,983.80
2018-08-07T13:17:59.338Z,983.73
2018-08-07T13:18:59.487Z,983.76
2018-08-07T13:19:59.656Z,983.76
2018-08-07T13:20:59.835Z,983.78
2018-08-07T13:21:59.945Z,983.78
2018-08-07T13:23:00.177Z,983.79
2018-08-07T13:24:00.405Z,983.70
2018-08-07T13:25:00.562Z,983.67
2018-08-07T13:26:00.717Z,983.74
2018-08-07T13:27:00.891Z,983.75
2018-08-07T13:28:01.075Z,983.70
2018-08-07T13:29:01.326Z,983.64
2018-08-07T13:30:01.530Z,983.66
2018-08-07T13:31:01.612Z,983.54
2018-08-07T13:32:01.866Z,983.65
2018-08-07T13:33:02.006Z,983.68
2018-08-07T13:34:02.195Z,983.68
2018-08-07T13:35:02.434Z,983.64
2018-08-07T13:36:02.599Z,983.60
2018-08-07T13:37:02.830Z,983.35
2018-08-07T13:38:02.900Z,983.48
2018-08-07T13:39:03.182Z,983.51
2018-08-07T13:40:03.334Z,983.53
2018-08-07T13:41:03.584Z,983.25
2018-08-07T13:42:03.718Z,983.30
2018-08-07T13:43:03.903Z,983.23
2018-08-07T13:44:03.980Z,983.33
2018-08-07T13:45:04.262Z,983.37
2018-08-07T13:46:04.472Z,983.29
2018-08-07T13:47:04.550Z,983.32
2018-08-07T13:48:04.795Z,983.30
2018-08-07T13:49:05.021Z,983.48
2018-08-07T13:50:05.218Z,983.47
2018-08-07T13:51:05.398Z,983.43
2018-08-07T13:52:05.506Z,983.36
2018-08-07T13:53:05.727Z,983.38
2018-08-07T13:54:05.839Z,983.38
2018-08-07T13:55:06.053Z,983.33
2018-08-07T13:56:06.226Z,983.26
2018-08-07T13:57:06.420Z,983.22
2018-08-07T13:58:06.600Z,983.34
2018-08-07T13:59:06.801Z,983.32
2018-08-07T14:00:06.972Z,983.41
2018-08-07T14:01:07.065Z,983.38
2018-08-07T14:02:07.375Z,983.39
2018-08-07T14:03:07.502Z,983.37
2018-08-07T14:04:07.625Z,983.37
2018-08-07T14:05:07.817Z,983.36
2018-08-07T14:06:08.076Z,983.28
2018-08-07T14:07:08.786Z,983.26
2018-08-07T14:08:09.390Z,983.21
2018-08-07T14:09:08.630Z,983.17
2018-08-07T14:10:08.785Z,983.19
2018-08-07T14:11:08.937Z,983.20
2018-08-07T14:12:09.148Z,983.17
2018-08-07T14:13:09.374Z,983.31
2018-08-07T14:14:09.581Z,983.35
2018-08-07T14:15:09.683Z,983.28
2018-08-07T14:16:09.927Z,983.31
2018-08-07T14:17:10.004Z,983.21
2018-08-07T14:18:10.232Z,983.24
2018-08-07T14:19:10.416Z,983.23
2018-08-07T14:20:10.716Z,983.12
2018-08-07T14:21:10.819Z,983.17
2018-08-07T14:22:11.111Z,983.15
2018-08-07T14:23:11.169Z,983.14
2018-08-07T14:24:11.347Z,983.16
2018-08-07T14:25:11.583Z,983.08
2018-08-07T14:26:11.668Z,983.12
2018-08-07T14:27:11.928Z,983.01
2018-08-07T14:28:12.091Z,983.01
2018-08-07T14:29:12.224Z,983.02
2018-08-07T14:30:12.452Z,983.06
2018-08-07T14:31:12.630Z,982.79
2018-08-07T14:32:12.866Z,982.80
2018-08-07T14:33:13.006Z,983.08
2018-08-07T14:34:13.293Z,983.04
2018-08-07T14:35:13.412Z,983.08
2018-08-07T14:36:13.664Z,983.03
2018-08-07T14:37:13.744Z,982.99
2018-08-07T14:38:13.846Z,982.96
2018-08-07T14:39:14.076Z,982.90
2018-08-07T14:40:14.336Z,982.89
2018-08-07T14:41:14.498Z,982.81
2018-08-07T14:42:14.767Z,982.69
2018-08-07T14:43:14.872Z,982.70
2018-08-07T14:44:15.029Z,982.72
2018-08-07T14:45:15.211Z,982.71
2018-08-07T14:46:15.382Z,982.67
2018-08-07T14:47:15.632Z,982.67
2018-08-07T14:48:15.818Z,982.71
2018-08-07T14:49:15.964Z,982.63
2018-08-07T14:50:16.150Z,982.65
2018-08-07T14:51:16.418Z,982.65
2018-08-07T14:52:16.434Z,982.63
2018-08-07T14:53:16.680Z,982.68
2018-08-07T14:54:16.803Z,982.86
2018-08-07T14:55:17.066Z,982.89
2018-08-07T14:56:17.192Z,982.94
2018-08-07T14:57:17.405Z,982.87
2018-08-07T14:58:17.564Z,982.90
2018-08-07T14:59:17.699Z,982.96
2018-08-07T15:00:18.002Z,982.89
2018-08-07T15:01:18.152Z,983.01
2018-08-07T15:02:18.276Z,982.93
2018-08-07T15:03:18.442Z,983.02
2018-08-07T15:04:18.590Z,983.06
2018-08-07T15:05:18.877Z,983.08
2018-08-07T15:06:19.099Z,983.01
2018-08-07T15:07:19.297Z,982.95
2018-08-07T15:08:19.365Z,982.89
2018-08-07T15:09:19.526Z,983.01
2018-08-07T15:10:19.716Z,982.98
2018-08-07T15:11:19.959Z,983.06
2018-08-07T15:12:20.291Z,983.21
2018-08-07T15:13:20.295Z,983.24
2018-08-07T15:14:20.435Z,983.20
2018-08-07T15:15:20.628Z,983.18
2018-08-07T15:16:20.828Z,983.07
2018-08-07T15:17:21.037Z,983.15
2018-08-07T15:18:21.181Z,983.12
2018-08-07T15:19:21.341Z,983.32
2018-08-07T15:20:21.528Z,983.22
2018-08-07T15:21:21.751Z,983.11
2018-08-07T15:22:21.929Z,983.07
2018-08-07T15:23:22.129Z,983.14
2018-08-07T15:24:22.211Z,983.11
2018-08-07T15:25:22.427Z,983.19
2018-08-07T15:26:22.642Z,983.10
2018-08-07T15:27:22.879Z,983.12
2018-08-07T15:28:23.026Z,983.09
2018-08-07T15:29:23.285Z,983.01
2018-08-07T15:30:23.358Z,983.05
2018-08-07T15:31:24.408Z,982.93
2018-08-07T15:32:23.756Z,983.04
2018-08-07T15:33:23.993Z,982.89
2018-08-07T15:34:24.151Z,982.97
2018-08-07T15:35:24.406Z,982.90
2018-08-07T15:36:25.404Z,982.95
2018-08-07T15:37:24.711Z,982.78
2018-08-07T15:38:24.992Z,982.86
2018-08-07T15:39:25.017Z,982.84
2018-08-07T15:40:25.195Z,982.74
2018-08-07T15:41:25.441Z,982.96
2018-08-07T15:42:25.580Z,982.82